Latest Weather Observations for Portland Airport

IDV60801

Issued at 3:22 pm EST Saturday 2 July 2022 (issued every 10 minutes, with the page automatically refreshed every 10 minutes)

About weather observations | Map of weather stations | Latest weather observations for VIC | Other Formats
Station Details ID: 090171 Name: CASHMORE AIRPORT Lat: -38.31 Lon: 141.47 Height: 80.9 m
Data from the previous 72 hours. | See also: Recent months at Portland Airport
Date/Time
EST
Temp
°C
App
Temp
°C
Dew
Point
°C
Rel
Hum
%
Delta-T
°C
Wind Press
QNH
hPa
Press
MSL
hPa
Rain since
9am
mm
Dir  Spd
km/h
Gust
km/h
Spd
kts
Gust
kts
02/03:00pm 10.1 8.2 7.5 84 1.2 SE 7 9 4 5 1030.6 1030.7 0.0
02/02:30pm 10.8 8.1 7.3 79 1.7 SW 11 19 6 10 1030.7 1030.8 0.0
02/02:00pm 10.3 7.4 6.5 77 1.8 S 11 17 6 9 1030.9 1031.0 0.0
02/01:30pm 11.1 8.3 7.0 76 2.0 S 11 15 6 8 1031.1 1031.2 0.0
02/01:00pm 10.3 7.7 6.1 75 1.9 S 9 15 5 8 1031.4 1031.5 0.0
02/12:30pm 10.4 7.9 6.4 76 1.9 S 9 17 5 9 1031.6 1031.8 0.0
02/12:00pm 10.6 7.8 5.2 69 2.4 S 9 13 5 7 1032.0 1032.2 0.0
02/11:30am 10.2 7.1 5.6 73 2.1 S 11 19 6 10 1032.4 1032.6 0.0
02/11:00am 9.8 7.3 6.7 81 1.4 S 9 17 5 9 1032.4 1032.6 0.0
02/10:30am 8.9 7.0 6.7 86 1.0 SW 6 9 3 5 1032.5 1032.7 0.0
02/10:00am 8.4 6.8 7.8 96 0.3 SW 6 7 3 4 1032.4 1032.6 0.0
02/09:30am 7.7 6.7 7.4 98 0.1 SW 2 7 1 4 1032.2 1032.4 0.0
02/09:21am 7.6 7.0 7.3 98 0.1 CALM 0 0 0 0 1032.2 1032.4 0.0
02/09:03am 7.4 6.3 7.1 98 0.1 SW 2 9 1 5 1032.2 1032.4 0.0
02/09:00am 7.3 6.2 7.0 98 0.1 SW 2 6 1 3 1032.2 1032.4 2.4
02/08:30am 6.3 5.0 6.0 98 0.1 SW 2 6 1 3 1032.2 1032.4 2.2
02/08:00am 6.5 5.6 6.2 98 0.1 CALM 0 0 0 0 1032.2 1032.4 2.2
02/07:44am 6.1 3.4 5.8 98 0.1 SW 9 13 5 7 1032.1 1032.3 2.2
02/07:30am 5.9 3.6 5.5 97 0.2 SW 7 9 4 5 1032.1 1032.3 2.0
02/07:16am 5.7 4.3 5.3 97 0.2 SW 2 6 1 3 1032.0 1032.2 2.0
02/07:00am 6.1 4.7 5.7 97 0.2 SW 2 6 1 3 1032.1 1032.3 2.0
02/06:45am 5.7 2.9 5.3 97 0.2 SW 9 9 5 5 1032.1 1032.3 2.0
02/06:30am 5.6 4.5 5.2 97 0.2 CALM 0 0 0 0 1031.9 1032.1 2.0
02/06:00am 5.9 4.5 5.5 97 0.2 SW 2 9 1 5 1031.8 1032.0 2.0
02/05:30am 6.3 5.4 5.9 97 0.2 CALM 0 0 0 0 1031.6 1031.8 2.0
02/05:18am 6.4 5.5 6.1 98 0.1 CALM 0 0 0 0 1031.6 1031.8 2.0
02/05:05am 6.4 4.4 6.1 98 0.1 SW 6 7 3 4 1031.6 1031.8 2.0
02/05:00am 6.3 4.6 5.9 97 0.2 SW 4 6 2 3 1031.7 1031.9 1.8
02/04:52am 6.5 4.3 6.2 98 0.1 SW 7 9 4 5 1031.7 1031.9 1.8
02/04:30am 6.0 4.2 5.6 97 0.2 SW 4 7 2 4 1031.8 1032.0 1.8
02/04:00am 6.0 5.0 5.6 97 0.2 CALM 0 0 0 0 1031.8 1032.0 1.8
02/03:30am 5.3 4.1 4.7 96 0.3 CALM 0 0 0 0 1031.9 1032.1 1.6
02/03:12am 5.8 4.4 5.4 97 0.2 SW 2 7 1 4 1032.0 1032.2 1.6
02/03:00am 6.0 4.6 5.4 96 0.3 SW 2 6 1 3 1032.1 1032.3 1.6
02/02:30am 5.0 2.9 4.1 94 0.4 SW 4 9 2 5 1032.2 1032.4 1.6
02/02:00am 7.0 5.0 6.3 95 0.3 SW 6 7 3 4 1032.1 1032.3 1.6
02/01:30am 5.7 3.7 4.3 91 0.6 SW 4 7 2 4 1032.3 1032.5 1.4
02/01:00am 7.5 4.9 6.0 90 0.7 SW 9 11 5 6 1032.4 1032.6 1.4
02/12:30am 7.8 5.9 6.7 93 0.5 SW 6 11 3 6 1032.5 1032.7 1.4
02/12:00am 7.2 6.4 6.3 94 0.4 CALM 0 0 0 0 1032.4 1032.6 1.4
 
Date/Time
EST
Temp
°C
App
Temp
°C
Dew
Point
°C
Rel
Hum
%
Delta-T
°C
Wind Press
QNH
hPa
Press
MSL
hPa
Rain since
9am
mm
Dir  Spd
km/h
Gust
km/h
Spd
kts
Gust
kts
01/11:30pm 7.6 5.7 6.7 94 0.4 SW 6 9 3 5 1032.5 1032.7 1.4
01/11:00pm 7.1 5.0 6.0 93 0.5 SW 6 9 3 5 1032.4 1032.6 1.4
01/10:30pm 7.7 5.6 6.6 93 0.5 SSW 7 9 4 5 1032.6 1032.8 1.4
01/10:00pm 7.7 4.9 6.8 94 0.4 SW 11 15 6 8 1032.6 1032.8 1.4
01/09:30pm 7.6 5.2 6.9 95 0.3 WSW 9 13 5 7 1032.8 1033.0 1.4
01/09:00pm 7.2 5.1 6.0 92 0.5 SSW 6 11 3 6 1032.7 1032.9 1.4
01/08:30pm 8.0 6.0 7.1 94 0.4 SSW 7 9 4 5 1032.7 1032.9 1.4
01/08:27pm 7.9 6.1 7.0 94 0.4 SSW 6 9 3 5 1032.7 1032.9 1.4
01/08:00pm 8.2 5.8 7.1 93 0.5 SSW 9 11 5 6 1032.6 1032.8 1.4
01/07:54pm 8.3 5.9 7.1 92 0.6 SW 9 15 5 8 1032.6 1032.8 1.4
01/07:52pm 8.3 5.9 7.1 92 0.6 SW 9 15 5 8 1032.6 1032.8 1.2
01/07:45pm 8.3 6.8 6.9 91 0.7 WSW 4 15 2 8 1032.5 1032.7 1.2
01/07:40pm 8.6 8.0 7.4 92 0.6 CALM 0 7 0 4 1032.5 1032.7 1.2
01/07:35pm 8.6 7.2 7.2 91 0.7 W 4 7 2 4 1032.5 1032.7 1.2
01/07:30pm 8.6 6.8 7.2 91 0.7 W 6 7 3 4 1032.4 1032.6 1.2
01/07:14pm 8.5 7.0 7.0 90 0.7 S 4 9 2 5 1032.3 1032.5 1.2
01/07:00pm 8.6 7.9 7.1 90 0.7 CALM 0 4 0 2 1032.1 1032.3 1.2
01/06:30pm 8.5 6.5 7.0 90 0.7 SSW 7 11 4 6 1032.1 1032.3 1.2
01/06:00pm 8.2 5.8 7.0 92 0.6 SW 9 13 5 7 1032.0 1032.2 1.0
01/05:30pm 8.5 6.1 7.1 91 0.7 SSW 9 13 5 7 1032.0 1032.2 1.0
01/05:11pm 8.8 6.1 7.4 91 0.7 SW 11 15 6 8 1031.9 1032.1 1.0
01/05:06pm 8.9 6.2 7.5 91 0.7 SW 11 15 6 8 1031.9 1032.1 1.0
01/05:00pm 8.8 6.5 7.4 91 0.7 SW 9 13 5 7 1032.0 1032.2 1.0
01/04:54pm 8.9 6.6 7.5 91 0.7 SW 9 13 5 7 1031.9 1032.1 1.0
01/04:33pm 9.2 6.9 7.5 89 0.8 SSW 9 15 5 8 1032.0 1032.2 0.8
01/04:30pm 9.2 6.9 7.5 89 0.8 S 9 15 5 8 1031.9 1032.1 0.8
01/04:00pm 9.4 7.2 7.8 90 0.8 S 9 17 5 9 1031.9 1032.1 0.8
01/03:58pm 9.3 7.0 7.6 89 0.8 S 9 17 5 9 1031.9 1032.1 0.8
01/03:46pm 9.1 6.5 7.7 91 0.7 S 11 15 6 8 1031.9 1032.1 0.8
01/03:37pm 9.4 6.9 8.0 91 0.7 SSE 11 17 6 9 1031.9 1032.1 0.6
01/03:30pm 9.6 7.1 8.2 91 0.7 SSE 11 17 6 9 1031.8 1032.0 0.6
01/03:25pm 9.9 7.9 8.7 92 0.6 S 9 15 5 8 1031.8 1032.0 0.6
01/03:11pm 9.8 7.0 8.4 91 0.7 S 13 20 7 11 1031.9 1032.1 0.6
01/03:00pm 10.3 7.8 8.1 86 1.1 SSW 11 17 6 9 1031.9 1032.1 0.6
01/02:49pm 9.6 7.4 7.9 89 0.8 SSW 9 15 5 8 1031.9 1032.1 0.6
01/02:40pm 9.3 6.7 7.7 90 0.8 SSW 11 17 6 9 1032.0 1032.2 0.6
01/02:30pm 9.5 7.7 8.1 91 0.7 S 7 11 4 6 1032.0 1032.2 0.6
01/02:25pm 9.4 7.8 8.0 91 0.7 SSE 6 11 3 6 1032.0 1032.2 0.6
01/02:00pm 10.0 7.1 8.1 88 0.9 SSE 13 20 7 11 1032.1 1032.3 0.2
01/01:57pm 10.2 7.3 8.0 86 1.1 SSE 13 20 7 11 1032.2 1032.4 0.2
01/01:30pm 11.1 7.9 7.0 76 2.0 S 13 19 7 10 1032.2 1032.4 0.2
01/01:00pm 10.7 7.4 6.5 75 2.0 S 13 19 7 10 1032.3 1032.5 0.2
01/12:35pm 11.0 8.7 7.5 79 1.7 S 9 13 5 7 1032.6 1032.8 0.2
01/12:30pm 10.2 7.9 7.3 82 1.4 S 9 13 5 7 1032.7 1032.9 0.2
01/12:00pm 10.0 9.1 7.6 85 1.1 ESE 2 7 1 4 1032.9 1033.1 0.2
01/11:56am 9.9 8.6 7.7 86 1.1 ESE 4 7 2 4 1032.9 1033.1 0.2
01/11:47am 9.8 8.9 7.7 87 1.0 E 2 7 1 4 1032.9 1033.1 0.2
01/11:36am 9.4 7.5 7.7 89 0.8 ESE 7 13 4 7 1033.0 1033.2 0.2
01/11:32am 9.5 7.3 7.9 90 0.8 ESE 9 13 5 7 1032.9 1033.1 0.2
01/11:30am 9.6 7.4 8.0 90 0.8 ESE 9 13 5 7 1032.9 1033.1 0.2
01/11:13am 9.4 5.9 7.0 85 1.1 SE 15 24 8 13 1033.0 1033.2 0.0
01/11:00am 9.9 7.3 7.7 86 1.0 SE 11 17 6 9 1033.0 1033.2 0.0
01/10:46am 9.4 6.7 7.3 87 1.0 SSE 11 17 6 9 1033.1 1033.3 0.0
01/10:30am 9.5 6.9 7.8 89 0.8 SSE 11 19 6 10 1033.0 1033.2 0.0
01/10:26am 9.7 6.7 7.8 88 0.9 SSE 13 20 7 11 1033.1 1033.3 0.0
01/10:00am 9.6 7.2 7.2 85 1.1 S 9 13 5 7 1032.9 1033.1 0.0
01/09:30am 9.3 5.7 6.7 84 1.2 SSE 15 22 8 12 1032.7 1032.8 0.0
01/09:00am 9.5 7.7 8.1 91 0.7 SSW 7 13 4 7 1032.6 1032.7 5.2
01/08:30am 8.9 6.5 7.2 89 0.8 SSE 9 13 5 7 1032.5 1032.6 5.2
01/08:00am 9.6 6.6 6.1 79 1.6 SSE 11 24 6 13 1032.4 1032.5 5.2
01/07:30am 9.4 6.9 4.0 69 2.4 SSE 6 9 3 5 1032.2 1032.3 5.2
01/07:00am 9.9 6.8 3.6 65 2.7 SE 9 13 5 7 1031.9 1032.0 5.2
01/06:30am 9.8 6.0 4.0 67 2.6 SE 13 20 7 11 1031.6 1031.7 5.2
01/06:00am 9.9 6.5 4.1 67 2.5 SE 11 15 6 8 1031.3 1031.4 5.2
01/05:30am 9.7 6.7 4.1 68 2.5 SSE 9 15 5 8 1031.1 1031.2 5.2
01/05:00am 9.9 6.4 3.6 65 2.7 SE 11 17 6 9 1031.0 1031.1 5.2
01/04:30am 10.1 6.3 3.8 65 2.8 SE 13 17 7 9 1030.9 1031.0 5.2
01/04:00am 9.9 6.5 4.1 67 2.5 SE 11 15 6 8 1031.0 1031.1 5.2
01/03:30am 9.9 7.0 4.7 70 2.3 SSE 9 13 5 7 1030.9 1031.0 5.2
01/03:00am 10.2 6.6 4.8 69 2.4 SE 13 19 7 10 1030.9 1031.0 5.2
01/02:30am 9.9 7.0 4.7 70 2.3 SE 9 17 5 9 1031.0 1031.1 5.2
01/02:00am 9.7 6.8 4.9 72 2.1 ESE 9 13 5 7 1030.9 1031.0 5.2
01/01:30am 10.0 6.4 4.8 70 2.3 SE 13 19 7 10 1030.8 1030.9 5.2
01/01:00am 9.9 7.4 4.5 69 2.4 SE 7 11 4 6 1030.7 1030.8 5.2
01/12:30am 10.3 6.6 4.7 68 2.5 SE 13 20 7 11 1030.8 1030.9 5.2
01/12:00am 10.4 6.8 4.8 68 2.5 SE 13 19 7 10 1030.7 1030.8 5.2
 
Date/Time
EST
Temp
°C
App
Temp
°C
Dew
Point
°C
Rel
Hum
%
Delta-T
°C
Wind Press
QNH
hPa
Press
MSL
hPa
Rain since
9am
mm
Dir  Spd
km/h
Gust
km/h
Spd
kts
Gust
kts
30/11:30pm 9.9 6.9 4.3 68 2.5 SSE 9 15 5 8 1030.7 1030.8 5.2
30/11:00pm 10.6 6.6 4.9 68 2.6 SE 15 22 8 12 1030.5 1030.6 5.2
30/10:30pm 10.7 6.5 5.7 71 2.3 SE 17 22 9 12 1030.3 1030.4 5.2
30/10:00pm 10.8 7.8 5.8 71 2.3 SE 11 15 6 8 1030.2 1030.3 5.2
30/09:30pm 10.9 7.6 6.5 74 2.1 SE 13 17 7 9 1030.0 1030.1 5.2
30/09:00pm 11.1 7.8 6.5 73 2.2 SSE 13 20 7 11 1029.7 1029.8 5.2
30/08:30pm 11.0 7.9 7.1 77 1.9 SE 13 19 7 10 1029.7 1029.8 5.2
30/08:00pm 10.8 7.7 7.3 79 1.7 SE 13 20 7 11 1029.4 1029.5 5.2
30/07:30pm 10.6 7.2 7.5 81 1.5 SE 15 24 8 13 1029.1 1029.2 5.2
30/07:00pm 10.5 7.1 6.1 74 2.0 SSE 13 20 7 11 1028.9 1029.0 5.2
30/06:30pm 10.9 7.3 6.6 75 2.0 SE 15 22 8 12 1028.6 1028.7 5.2
30/06:00pm 11.0 7.1 7.1 77 1.9 SSE 17 22 9 12 1028.1 1028.2 5.2
30/05:30pm 11.2 7.8 7.7 79 1.7 SSE 15 22 8 12 1027.6 1027.7 5.2
30/05:00pm 11.4 7.7 8.1 80 1.6 SE 17 26 9 14 1027.4 1027.5 5.2
30/04:30pm 11.6 7.7 8.5 81 1.5 SE 19 28 10 15 1026.9 1027.0 5.2
30/04:00pm 11.5 7.5 9.1 85 1.2 SE 20 30 11 16 1026.7 1026.8 5.2
30/03:45pm 11.4 7.7 9.5 88 1.0 SE 19 32 10 17 1026.5 1026.6 5.2
30/03:41pm 11.4 7.8 9.8 90 0.8 SE 19 26 10 14 1026.5 1026.6 5.2
30/03:30pm 11.3 8.3 10.5 95 0.4 SE 17 28 9 15 1026.4 1026.5 5.2
30/03:00pm 11.2 8.5 10.4 95 0.4 SE 15 28 8 15 1026.2 1026.3 4.4
30/02:44pm 11.4 7.8 10.5 94 0.5 SE 20 28 11 15 1026.0 1026.1 4.0
30/02:39pm 11.8 8.3 10.9 94 0.5 SE 20 30 11 16 1026.0 1026.1 4.0
30/02:30pm 11.6 9.0 10.8 95 0.4 SE 15 24 8 13 1025.9 1026.0 4.0
30/02:00pm 11.2 10.0 10.3 94 0.5 ESE 7 13 4 7 1025.9 1026.0 3.2
30/01:50pm 11.0 9.3 9.8 92 0.6 E 9 13 5 7 1026.0 1026.1 3.0
30/01:32pm 11.4 10.0 9.7 89 0.9 ESE 7 11 4 6 1025.9 1026.0 1.8
30/01:30pm 11.5 9.7 9.6 88 1.0 ESE 9 11 5 6 1025.9 1026.0 1.6
30/01:23pm 11.7 10.1 10.1 90 0.8 ESE 9 15 5 8 1025.9 1026.0 1.0
30/01:16pm 11.6 9.6 10.3 92 0.7 ESE 11 15 6 8 1026.0 1026.1 1.0
30/01:09pm 12.0 9.8 10.7 92 0.7 SE 13 19 7 10 1026.1 1026.2 1.0
30/01:03pm 11.8 9.1 10.2 90 0.8 SE 15 20 8 11 1026.2 1026.3 1.0
30/01:00pm 11.8 9.4 10.2 90 0.8 SE 13 20 7 11 1026.2 1026.3 1.0
30/12:54pm 12.3 10.5 10.9 91 0.7 SE 11 17 6 9 1026.2 1026.3 1.0
30/12:37pm 12.2 10.4 10.8 91 0.7 SSE 11 15 6 8 1026.1 1026.2 1.0
30/12:32pm 12.1 10.2 10.5 90 0.8 SSE 11 15 6 8 1026.1 1026.2 1.0
30/12:30pm 12.1 10.6 10.5 90 0.8 SSE 9 15 5 8 1026.1 1026.2 1.0
30/12:18pm 12.0 10.7 10.1 88 1.0 ESE 7 11 4 6 1026.1 1026.2 0.8
30/12:00pm 12.6 11.1 10.5 87 1.1 E 9 11 5 6 1026.1 1026.2 0.6
30/11:30am 12.3 10.9 11.0 92 0.7 NNE 9 11 5 6 1025.9 1026.0 0.6
30/11:00am 11.7 10.6 10.8 94 0.5 NNW 7 7 4 4 1025.9 1026.0 0.6
30/10:50am 11.5 10.5 10.9 96 0.3 NNW 7 9 4 5 1025.9 1026.0 0.6
30/10:30am 11.2 11.4 10.7 97 0.3 CALM 0 0 0 0 1025.8 1025.9 0.6
30/10:10am 10.8 10.6 10.5 98 0.2 SW 2 6 1 3 1025.6 1025.7 0.6
30/10:00am 10.8 11.0 10.5 98 0.2 CALM 0 0 0 0 1025.6 1025.7 0.6
30/09:36am 10.1 10.2 10.0 99 0.1 CALM 0 0 0 0 1025.4 1025.5 0.2
30/09:30am 10.0 10.0 9.7 98 0.2 CALM 0 0 0 0 1025.3 1025.4 0.0
30/09:00am 9.1 8.8 8.8 98 0.1 CALM 0 0 0 0 1024.8 1025.0 2.8
30/08:30am 8.0 7.5 7.7 98 0.1 CALM 0 0 0 0 1024.4 1024.6 2.8
30/08:00am 7.5 6.8 7.1 97 0.2 CALM 0 0 0 0 1024.2 1024.4 2.4
30/07:30am 7.4 6.7 7.0 97 0.2 CALM 0 0 0 0 1023.9 1024.1 2.4
30/07:00am 7.1 6.3 6.7 97 0.2 CALM 0 0 0 0 1023.2 1023.3 2.4
30/06:30am 7.3 6.5 6.7 96 0.3 CALM 0 0 0 0 1022.8 1022.9 2.4
30/06:00am 7.3 6.5 6.7 96 0.3 CALM 0 0 0 0 1022.4 1022.5 2.4
30/05:30am 7.5 6.8 6.9 96 0.3 CALM 0 0 0 0 1022.2 1022.3 2.4
30/05:00am 7.8 7.2 7.4 97 0.2 CALM 0 0 0 0 1021.9 1022.0 2.4
30/04:30am 7.8 7.2 7.4 97 0.2 CALM 0 0 0 0 1021.7 1021.8 2.2
30/04:00am 8.0 6.1 7.6 97 0.2 N 7 11 4 6 1021.5 1021.6 2.2
30/03:30am 7.8 6.8 7.4 97 0.2 NNW 2 6 1 3 1021.4 1021.5 2.2
30/03:00am 7.7 6.7 7.3 97 0.2 N 2 7 1 4 1021.2 1021.3 2.2
30/02:57am 7.5 6.8 7.1 97 0.2 CALM 0 0 0 0 1021.2 1021.3 2.2
30/02:30am 7.1 6.3 6.5 96 0.3 CALM 0 0 0 0 1021.0 1021.1 2.2
30/02:00am 7.3 6.5 6.7 96 0.3 CALM 0 0 0 0 1020.8 1020.9 2.2
30/01:57am 7.5 6.8 6.9 96 0.3 CALM 0 0 0 0 1020.8 1020.9 2.2
30/01:30am 8.1 6.4 7.5 96 0.3 N 6 7 3 4 1020.5 1020.6 2.2
30/01:00am 8.3 6.4 7.7 96 0.3 N 7 9 4 5 1020.4 1020.5 2.2
30/12:30am 8.4 6.2 7.8 96 0.3 N 9 11 5 6 1020.4 1020.5 2.2
30/12:00am 8.6 6.8 7.8 95 0.4 NNW 7 9 4 5 1020.5 1020.6 2.2
 
Date/Time
EST
Temp
°C
App
Temp
°C
Dew
Point
°C
Rel
Hum
%
Delta-T
°C
Wind Press
QNH
hPa
Press
MSL
hPa
Rain since
9am
mm
Dir  Spd
km/h
Gust
km/h
Spd
kts
Gust
kts
29/11:30pm 8.8 6.2 7.9 94 0.4 NNW 11 15 6 8 1020.3 1020.4 1.8
29/11:00pm 8.9 6.3 7.8 93 0.5 NNW 11 15 6 8 1020.1 1020.2 1.2
29/10:30pm 9.0 6.0 7.8 92 0.6 NNW 13 17 7 9 1020.0 1020.1 1.2
29/10:00pm 8.9 6.4 8.0 94 0.4 NNW 11 15 6 8 1019.9 1020.0 1.2
29/09:30pm 9.0 6.5 8.2 95 0.4 N 11 15 6 8 1019.7 1019.8 1.0
29/09:00pm 9.1 5.8 8.0 93 0.5 N 15 20 8 11 1019.5 1019.6 0.8
29/08:30pm 9.3 5.9 7.7 90 0.8 N 15 20 8 11 1019.3 1019.4 0.6
29/08:00pm 9.3 6.0 7.9 91 0.7 N 15 22 8 12 1019.0 1019.1 0.6
29/07:30pm 8.9 6.3 7.7 92 0.6 N 11 15 6 8 1019.0 1019.1 0.6
29/07:00pm 8.9 5.9 7.7 92 0.6 N 13 17 7 9 1018.7 1018.8 0.6
29/06:30pm 9.1 6.1 7.9 92 0.6 N 13 17 7 9 1018.4 1018.5 0.6
29/06:00pm 9.3 6.3 7.9 91 0.7 NNE 13 17 7 9 1018.1 1018.2 0.6
29/05:30pm 9.4 6.5 8.2 92 0.6 N 13 17 7 9 1018.1 1018.2 0.6
29/05:00pm 9.6 6.7 8.2 91 0.7 N 13 20 7 11 1018.1 1018.2 0.6
29/04:30pm 9.7 6.4 8.1 90 0.8 N 15 24 8 13 1018.1 1018.2 0.4
29/04:00pm 9.7 5.7 8.1 90 0.8 N 19 28 10 15 1017.8 1017.9 0.4
29/03:30pm 9.6 5.5 8.0 90 0.8 N 19 28 10 15 1017.9 1018.0 0.4

Other formats

Comma delimited format used in spreadsheet applications
http://www.bom.gov.au/fwo/IDV60801/IDV60801.94828.axf

JavaScript Object Notation format (JSON) in row-major order
http://www.bom.gov.au/fwo/IDV60801/IDV60801.94828.json

Data quality

Most of these data are generated automatically and are frequently updated. Quality checks on data are not normally performed. It is possible for incorrect values to appear. Refer to information at About Latest Weather Observations and please check the disclaimer before using these data.